sensor_id;sensor_type;location;lat;lon;timestamp;P1;durP1;ratioP1;P2;durP2;ratioP2
23588;SDS011;11972;48.078;11.876;2023-08-07T00:03:34;0.95;;;0.60;;
23588;SDS011;11972;48.078;11.876;2023-08-07T00:07:35;0.65;;;0.50;;
23588;SDS011;11972;48.078;11.876;2023-08-07T00:11:35;0.67;;;0.50;;
23588;SDS011;11972;48.078;11.876;2023-08-07T00:15:39;0.65;;;0.50;;
23588;SDS011;11972;48.078;11.876;2023-08-07T00:19:39;0.80;;;0.70;;
23588;SDS011;11972;48.078;11.876;2023-08-07T00:23:40;1.17;;;0.60;;
23588;SDS011;11972;48.078;11.876;2023-08-07T00:32:03;0.63;;;0.50;;
23588;SDS011;11972;48.078;11.876;2023-08-07T00:36:03;1.13;;;0.40;;
23588;SDS011;11972;48.078;11.876;2023-08-07T00:40:04;0.40;;;0.40;;
23588;SDS011;11972;48.078;11.876;2023-08-07T00:44:05;0.47;;;0.47;;
23588;SDS011;11972;48.078;11.876;2023-08-07T00:48:06;2.15;;;0.60;;
23588;SDS011;11972;48.078;11.876;2023-08-07T00:52:06;1.15;;;0.50;;
23588;SDS011;11972;48.078;11.876;2023-08-07T00:56:07;0.85;;;0.45;;
23588;SDS011;11972;48.078;11.876;2023-08-07T01:00:08;0.90;;;0.50;;
23588;SDS011;11972;48.078;11.876;2023-08-07T01:04:08;0.73;;;0.57;;
23588;SDS011;11972;48.078;11.876;2023-08-07T01:08:09;0.75;;;0.60;;
23588;SDS011;11972;48.078;11.876;2023-08-07T01:12:14;0.63;;;0.50;;
23588;SDS011;11972;48.078;11.876;2023-08-07T01:16:21;2.20;;;0.90;;
23588;SDS011;11972;48.078;11.876;2023-08-07T01:20:28;2.97;;;0.68;;
23588;SDS011;11972;48.078;11.876;2023-08-07T01:24:30;2.78;;;0.80;;
23588;SDS011;11972;48.078;11.876;2023-08-07T01:28:36;1.27;;;0.73;;
23588;SDS011;11972;48.078;11.876;2023-08-07T01:36:56;1.63;;;0.70;;
23588;SDS011;11972;48.078;11.876;2023-08-07T01:40:59;1.35;;;0.70;;
23588;SDS011;11972;48.078;11.876;2023-08-07T01:45:01;1.10;;;0.70;;
23588;SDS011;11972;48.078;11.876;2023-08-07T01:49:01;3.22;;;1.00;;
23588;SDS011;11972;48.078;11.876;2023-08-07T01:53:02;1.05;;;0.88;;
23588;SDS011;11972;48.078;11.876;2023-08-07T01:57:02;1.70;;;1.13;;
23588;SDS011;11972;48.078;11.876;2023-08-07T02:01:03;1.85;;;0.77;;
23588;SDS011;11972;48.078;11.876;2023-08-07T02:05:03;2.45;;;0.95;;
23588;SDS011;11972;48.078;11.876;2023-08-07T02:09:04;1.38;;;0.68;;
23588;SDS011;11972;48.078;11.876;2023-08-07T02:13:05;2.03;;;1.10;;
23588;SDS011;11972;48.078;11.876;2023-08-07T02:17:05;2.67;;;0.90;;
23588;SDS011;11972;48.078;11.876;2023-08-07T02:21:05;1.38;;;0.90;;
23588;SDS011;11972;48.078;11.876;2023-08-07T02:25:06;3.75;;;0.95;;
23588;SDS011;11972;48.078;11.876;2023-08-07T02:29:06;2.22;;;1.02;;
23588;SDS011;11972;48.078;11.876;2023-08-07T02:33:09;4.50;;;1.13;;
23588;SDS011;11972;48.078;11.876;2023-08-07T02:37:09;3.55;;;1.27;;
23588;SDS011;11972;48.078;11.876;2023-08-07T02:41:09;3.92;;;1.20;;
23588;SDS011;11972;48.078;11.876;2023-08-07T02:45:10;1.33;;;1.00;;
23588;SDS011;11972;48.078;11.876;2023-08-07T02:49:10;2.38;;;1.02;;
23588;SDS011;11972;48.078;11.876;2023-08-07T02:53:10;2.17;;;1.20;;
23588;SDS011;11972;48.078;11.876;2023-08-07T02:57:11;3.75;;;1.63;;
23588;SDS011;11972;48.078;11.876;2023-08-07T03:01:11;4.25;;;1.38;;
23588;SDS011;11972;48.078;11.876;2023-08-07T03:05:12;2.33;;;1.30;;
23588;SDS011;11972;48.078;11.876;2023-08-07T03:09:12;2.67;;;1.30;;
23588;SDS011;11972;48.078;11.876;2023-08-07T03:13:13;2.13;;;1.20;;
23588;SDS011;11972;48.078;11.876;2023-08-07T03:17:13;1.30;;;1.20;;
23588;SDS011;11972;48.078;11.876;2023-08-07T03:21:13;1.75;;;1.20;;
23588;SDS011;11972;48.078;11.876;2023-08-07T03:25:14;2.30;;;1.20;;
23588;SDS011;11972;48.078;11.876;2023-08-07T03:29:14;2.20;;;1.40;;
23588;SDS011;11972;48.078;11.876;2023-08-07T03:33:14;1.25;;;1.05;;
23588;SDS011;11972;48.078;11.876;2023-08-07T03:37:15;1.00;;;0.90;;
23588;SDS011;11972;48.078;11.876;2023-08-07T03:41:15;1.42;;;1.10;;
23588;SDS011;11972;48.078;11.876;2023-08-07T03:45:15;1.83;;;1.30;;
23588;SDS011;11972;48.078;11.876;2023-08-07T03:49:16;3.67;;;1.00;;
23588;SDS011;11972;48.078;11.876;2023-08-07T03:53:16;1.45;;;1.13;;
23588;SDS011;11972;48.078;11.876;2023-08-07T03:57:17;2.60;;;1.40;;
23588;SDS011;11972;48.078;11.876;2023-08-07T04:01:18;1.02;;;0.90;;
23588;SDS011;11972;48.078;11.876;2023-08-07T04:05:18;1.30;;;1.20;;
23588;SDS011;11972;48.078;11.876;2023-08-07T04:09:18;2.75;;;1.10;;
23588;SDS011;11972;48.078;11.876;2023-08-07T04:13:19;0.88;;;0.80;;
23588;SDS011;11972;48.078;11.876;2023-08-07T04:17:19;2.50;;;0.93;;
23588;SDS011;11972;48.078;11.876;2023-08-07T04:21:19;1.58;;;1.30;;
23588;SDS011;11972;48.078;11.876;2023-08-07T04:25:20;1.58;;;1.00;;
23588;SDS011;11972;48.078;11.876;2023-08-07T04:29:20;2.67;;;0.90;;
23588;SDS011;11972;48.078;11.876;2023-08-07T04:33:20;2.30;;;0.85;;
23588;SDS011;11972;48.078;11.876;2023-08-07T04:37:21;1.05;;;0.90;;
23588;SDS011;11972;48.078;11.876;2023-08-07T04:41:22;1.80;;;1.10;;
23588;SDS011;11972;48.078;11.876;2023-08-07T04:45:23;1.55;;;0.88;;
23588;SDS011;11972;48.078;11.876;2023-08-07T04:49:23;1.35;;;0.88;;
23588;SDS011;11972;48.078;11.876;2023-08-07T04:53:23;1.45;;;0.82;;
23588;SDS011;11972;48.078;11.876;2023-08-07T04:57:24;1.80;;;0.88;;
23588;SDS011;11972;48.078;11.876;2023-08-07T05:01:24;3.40;;;1.10;;
23588;SDS011;11972;48.078;11.876;2023-08-07T05:05:24;2.33;;;1.05;;
23588;SDS011;11972;48.078;11.876;2023-08-07T05:09:25;1.67;;;1.00;;
23588;SDS011;11972;48.078;11.876;2023-08-07T05:13:25;2.55;;;1.02;;
23588;SDS011;11972;48.078;11.876;2023-08-07T05:17:25;2.10;;;1.20;;
23588;SDS011;11972;48.078;11.876;2023-08-07T05:21:26;1.27;;;0.80;;
23588;SDS011;11972;48.078;11.876;2023-08-07T05:25:26;1.08;;;0.88;;
23588;SDS011;11972;48.078;11.876;2023-08-07T05:29:27;1.90;;;0.80;;
23588;SDS011;11972;48.078;11.876;2023-08-07T05:33:27;1.20;;;0.80;;
23588;SDS011;11972;48.078;11.876;2023-08-07T05:37:27;2.07;;;0.90;;
23588;SDS011;11972;48.078;11.876;2023-08-07T05:41:29;2.40;;;0.90;;
23588;SDS011;11972;48.078;11.876;2023-08-07T05:45:30;1.40;;;0.90;;
23588;SDS011;11972;48.078;11.876;2023-08-07T05:49:30;1.23;;;0.80;;
23588;SDS011;11972;48.078;11.876;2023-08-07T05:53:31;2.15;;;0.80;;
23588;SDS011;11972;48.078;11.876;2023-08-07T05:57:31;1.60;;;0.85;;
23588;SDS011;11972;48.078;11.876;2023-08-07T06:01:31;1.30;;;0.70;;
23588;SDS011;11972;48.078;11.876;2023-08-07T06:05:32;3.47;;;0.80;;
23588;SDS011;11972;48.078;11.876;2023-08-07T06:09:32;0.93;;;0.80;;
23588;SDS011;11972;48.078;11.876;2023-08-07T06:13:33;1.33;;;1.00;;
23588;SDS011;11972;48.078;11.876;2023-08-07T06:17:34;1.23;;;0.73;;
23588;SDS011;11972;48.078;11.876;2023-08-07T06:21:35;1.30;;;0.80;;
23588;SDS011;11972;48.078;11.876;2023-08-07T06:25:36;1.40;;;0.70;;
23588;SDS011;11972;48.078;11.876;2023-08-07T06:29:36;1.65;;;0.90;;
23588;SDS011;11972;48.078;11.876;2023-08-07T06:33:36;1.03;;;0.77;;
23588;SDS011;11972;48.078;11.876;2023-08-07T06:37:37;1.40;;;0.68;;
23588;SDS011;11972;48.078;11.876;2023-08-07T06:41:37;1.97;;;0.70;;
23588;SDS011;11972;48.078;11.876;2023-08-07T06:45:38;2.47;;;0.82;;
23588;SDS011;11972;48.078;11.876;2023-08-07T06:49:38;1.20;;;0.83;;
23588;SDS011;11972;48.078;11.876;2023-08-07T06:53:39;2.08;;;0.80;;
23588;SDS011;11972;48.078;11.876;2023-08-07T06:57:39;1.57;;;0.63;;
23588;SDS011;11972;48.078;11.876;2023-08-07T07:01:40;1.15;;;0.80;;
23588;SDS011;11972;48.078;11.876;2023-08-07T07:05:40;0.88;;;0.73;;
23588;SDS011;11972;48.078;11.876;2023-08-07T07:09:42;0.68;;;0.60;;
23588;SDS011;11972;48.078;11.876;2023-08-07T07:13:43;0.77;;;0.60;;
23588;SDS011;11972;48.078;11.876;2023-08-07T07:17:43;1.20;;;0.70;;
23588;SDS011;11972;48.078;11.876;2023-08-07T07:21:43;1.90;;;0.60;;
23588;SDS011;11972;48.078;11.876;2023-08-07T07:25:44;1.05;;;0.57;;
23588;SDS011;11972;48.078;11.876;2023-08-07T07:29:44;0.98;;;0.70;;
23588;SDS011;11972;48.078;11.876;2023-08-07T07:33:45;1.30;;;0.73;;
23588;SDS011;11972;48.078;11.876;2023-08-07T07:37:46;1.13;;;0.70;;
23588;SDS011;11972;48.078;11.876;2023-08-07T07:41:46;0.97;;;0.67;;
23588;SDS011;11972;48.078;11.876;2023-08-07T07:45:46;1.60;;;0.60;;
23588;SDS011;11972;48.078;11.876;2023-08-07T07:49:47;1.17;;;0.77;;
23588;SDS011;11972;48.078;11.876;2023-08-07T07:53:47;1.40;;;1.10;;
23588;SDS011;11972;48.078;11.876;2023-08-07T07:57:48;2.87;;;0.57;;
23588;SDS011;11972;48.078;11.876;2023-08-07T08:01:48;1.23;;;0.80;;
23588;SDS011;11972;48.078;11.876;2023-08-07T08:05:49;1.17;;;0.73;;
23588;SDS011;11972;48.078;11.876;2023-08-07T08:09:50;2.28;;;0.63;;
23588;SDS011;11972;48.078;11.876;2023-08-07T08:13:51;0.98;;;0.65;;
23588;SDS011;11972;48.078;11.876;2023-08-07T08:17:51;1.37;;;0.67;;
23588;SDS011;11972;48.078;11.876;2023-08-07T08:21:51;1.35;;;0.73;;
23588;SDS011;11972;48.078;11.876;2023-08-07T08:25:51;0.80;;;0.80;;
23588;SDS011;11972;48.078;11.876;2023-08-07T08:29:52;1.47;;;0.80;;
23588;SDS011;11972;48.078;11.876;2023-08-07T08:33:52;1.15;;;0.80;;
23588;SDS011;11972;48.078;11.876;2023-08-07T08:37:52;0.70;;;0.70;;
23588;SDS011;11972;48.078;11.876;2023-08-07T08:41:53;0.60;;;0.50;;
23588;SDS011;11972;48.078;11.876;2023-08-07T08:45:53;1.67;;;1.15;;
23588;SDS011;11972;48.078;11.876;2023-08-07T08:49:58;1.15;;;0.90;;
23588;SDS011;11972;48.078;11.876;2023-08-07T08:54:02;1.23;;;0.80;;
23588;SDS011;11972;48.078;11.876;2023-08-07T08:58:03;1.92;;;0.80;;
23588;SDS011;11972;48.078;11.876;2023-08-07T09:02:04;2.20;;;0.80;;
23588;SDS011;11972;48.078;11.876;2023-08-07T09:06:04;3.05;;;0.70;;
23588;SDS011;11972;48.078;11.876;2023-08-07T09:10:06;2.00;;;0.85;;
23588;SDS011;11972;48.078;11.876;2023-08-07T09:14:09;1.00;;;0.80;;
23588;SDS011;11972;48.078;11.876;2023-08-07T09:18:15;0.77;;;0.60;;
23588;SDS011;11972;48.078;11.876;2023-08-07T09:22:16;0.82;;;0.60;;
23588;SDS011;11972;48.078;11.876;2023-08-07T09:26:21;1.08;;;0.80;;
23588;SDS011;11972;48.078;11.876;2023-08-07T09:30:26;1.42;;;0.60;;
23588;SDS011;11972;48.078;11.876;2023-08-07T09:34:30;1.83;;;0.65;;
23588;SDS011;11972;48.078;11.876;2023-08-07T09:38:30;0.75;;;0.55;;
23588;SDS011;11972;48.078;11.876;2023-08-07T09:42:34;0.80;;;0.60;;
23588;SDS011;11972;48.078;11.876;2023-08-07T09:46:41;2.08;;;0.80;;
23588;SDS011;11972;48.078;11.876;2023-08-07T09:50:42;1.98;;;0.93;;
23588;SDS011;11972;48.078;11.876;2023-08-07T09:54:45;1.65;;;0.70;;
23588;SDS011;11972;48.078;11.876;2023-08-07T09:58:46;1.48;;;0.75;;
23588;SDS011;11972;48.078;11.876;2023-08-07T10:02:48;1.52;;;0.75;;
23588;SDS011;11972;48.078;11.876;2023-08-07T10:06:50;1.60;;;1.08;;
23588;SDS011;11972;48.078;11.876;2023-08-07T10:10:51;3.30;;;1.00;;
23588;SDS011;11972;48.078;11.876;2023-08-07T10:14:51;1.23;;;0.85;;
23588;SDS011;11972;48.078;11.876;2023-08-07T10:18:54;0.60;;;0.50;;
23588;SDS011;11972;48.078;11.876;2023-08-07T10:23:03;0.70;;;0.70;;
23588;SDS011;11972;48.078;11.876;2023-08-07T10:27:07;2.25;;;0.93;;
23588;SDS011;11972;48.078;11.876;2023-08-07T10:31:08;1.70;;;1.00;;
23588;SDS011;11972;48.078;11.876;2023-08-07T10:35:24;0.90;;;0.60;;
23588;SDS011;11972;48.078;11.876;2023-08-07T10:39:31;2.08;;;0.70;;
23588;SDS011;11972;48.078;11.876;2023-08-07T10:43:36;1.75;;;0.75;;
23588;SDS011;11972;48.078;11.876;2023-08-07T10:51:41;0.70;;;0.70;;
23588;SDS011;11972;48.078;11.876;2023-08-07T10:55:44;1.85;;;0.85;;
23588;SDS011;11972;48.078;11.876;2023-08-07T11:04:00;1.60;;;0.80;;
23588;SDS011;11972;48.078;11.876;2023-08-07T11:08:06;1.08;;;0.73;;
23588;SDS011;11972;48.078;11.876;2023-08-07T11:12:06;1.23;;;0.60;;
23588;SDS011;11972;48.078;11.876;2023-08-07T11:16:07;0.82;;;0.70;;
23588;SDS011;11972;48.078;11.876;2023-08-07T11:20:08;0.93;;;0.60;;
23588;SDS011;11972;48.078;11.876;2023-08-07T11:24:13;1.50;;;0.60;;
23588;SDS011;11972;48.078;11.876;2023-08-07T11:28:19;1.25;;;0.65;;
23588;SDS011;11972;48.078;11.876;2023-08-07T11:32:20;1.20;;;0.60;;
23588;SDS011;11972;48.078;11.876;2023-08-07T11:36:21;2.10;;;0.65;;
23588;SDS011;11972;48.078;11.876;2023-08-07T11:40:23;0.75;;;0.65;;
23588;SDS011;11972;48.078;11.876;2023-08-07T11:44:23;1.65;;;0.75;;
23588;SDS011;11972;48.078;11.876;2023-08-07T11:48:24;1.50;;;0.60;;
23588;SDS011;11972;48.078;11.876;2023-08-07T11:52:26;0.50;;;0.50;;
23588;SDS011;11972;48.078;11.876;2023-08-07T11:56:26;2.22;;;1.10;;
23588;SDS011;11972;48.078;11.876;2023-08-07T12:00:28;2.25;;;0.73;;
23588;SDS011;11972;48.078;11.876;2023-08-07T12:04:30;1.20;;;0.60;;
23588;SDS011;11972;48.078;11.876;2023-08-07T12:08:31;3.28;;;0.90;;
23588;SDS011;11972;48.078;11.876;2023-08-07T12:12:34;1.98;;;0.50;;
23588;SDS011;11972;48.078;11.876;2023-08-07T12:16:36;0.80;;;0.60;;
23588;SDS011;11972;48.078;11.876;2023-08-07T12:20:36;0.80;;;0.70;;
23588;SDS011;11972;48.078;11.876;2023-08-07T12:24:36;1.20;;;0.80;;
23588;SDS011;11972;48.078;11.876;2023-08-07T12:28:37;1.13;;;0.50;;
23588;SDS011;11972;48.078;11.876;2023-08-07T12:32:37;1.57;;;0.50;;
23588;SDS011;11972;48.078;11.876;2023-08-07T12:36:37;1.60;;;0.68;;
23588;SDS011;11972;48.078;11.876;2023-08-07T12:40:38;1.10;;;0.65;;
23588;SDS011;11972;48.078;11.876;2023-08-07T12:44:38;1.63;;;0.60;;
23588;SDS011;11972;48.078;11.876;2023-08-07T12:48:38;0.80;;;0.70;;
23588;SDS011;11972;48.078;11.876;2023-08-07T12:52:39;1.67;;;0.60;;
23588;SDS011;11972;48.078;11.876;2023-08-07T12:56:39;0.73;;;0.73;;
23588;SDS011;11972;48.078;11.876;2023-08-07T13:00:40;0.80;;;0.70;;
23588;SDS011;11972;48.078;11.876;2023-08-07T13:04:41;1.42;;;0.73;;
23588;SDS011;11972;48.078;11.876;2023-08-07T13:08:41;1.10;;;0.77;;
23588;SDS011;11972;48.078;11.876;2023-08-07T13:12:43;0.90;;;0.67;;
23588;SDS011;11972;48.078;11.876;2023-08-07T13:16:44;0.68;;;0.50;;
23588;SDS011;11972;48.078;11.876;2023-08-07T13:20:45;0.93;;;0.60;;
23588;SDS011;11972;48.078;11.876;2023-08-07T13:24:45;1.10;;;0.63;;
23588;SDS011;11972;48.078;11.876;2023-08-07T13:28:45;0.73;;;0.73;;
23588;SDS011;11972;48.078;11.876;2023-08-07T13:32:46;0.60;;;0.60;;
23588;SDS011;11972;48.078;11.876;2023-08-07T13:36:46;1.30;;;0.53;;
23588;SDS011;11972;48.078;11.876;2023-08-07T13:40:46;0.87;;;0.50;;
23588;SDS011;11972;48.078;11.876;2023-08-07T13:44:47;0.95;;;0.60;;
23588;SDS011;11972;48.078;11.876;2023-08-07T13:48:47;0.40;;;0.40;;
23588;SDS011;11972;48.078;11.876;2023-08-07T13:52:48;0.60;;;0.60;;
23588;SDS011;11972;48.078;11.876;2023-08-07T13:56:48;1.97;;;0.73;;
23588;SDS011;11972;48.078;11.876;2023-08-07T14:00:50;0.68;;;0.68;;
23588;SDS011;11972;48.078;11.876;2023-08-07T14:04:50;0.85;;;0.57;;
23588;SDS011;11972;48.078;11.876;2023-08-07T14:08:50;1.87;;;0.70;;
23588;SDS011;11972;48.078;11.876;2023-08-07T14:12:51;0.93;;;0.50;;
23588;SDS011;11972;48.078;11.876;2023-08-07T14:16:51;0.68;;;0.60;;
23588;SDS011;11972;48.078;11.876;2023-08-07T14:20:54;0.55;;;0.40;;
23588;SDS011;11972;48.078;11.876;2023-08-07T14:24:54;0.83;;;0.50;;
23588;SDS011;11972;48.078;11.876;2023-08-07T14:28:54;0.67;;;0.40;;
23588;SDS011;11972;48.078;11.876;2023-08-07T14:32:55;0.35;;;0.32;;
23588;SDS011;11972;48.078;11.876;2023-08-07T14:36:55;0.93;;;0.60;;
23588;SDS011;11972;48.078;11.876;2023-08-07T14:40:56;0.60;;;0.50;;
23588;SDS011;11972;48.078;11.876;2023-08-07T14:44:59;1.77;;;0.85;;
23588;SDS011;11972;48.078;11.876;2023-08-07T14:48:59;0.80;;;0.50;;
23588;SDS011;11972;48.078;11.876;2023-08-07T14:52:59;1.10;;;0.60;;
23588;SDS011;11972;48.078;11.876;2023-08-07T14:57:00;0.40;;;0.30;;
23588;SDS011;11972;48.078;11.876;2023-08-07T15:01:00;1.45;;;0.50;;
23588;SDS011;11972;48.078;11.876;2023-08-07T15:05:01;1.30;;;0.60;;
23588;SDS011;11972;48.078;11.876;2023-08-07T15:09:01;0.30;;;0.30;;
23588;SDS011;11972;48.078;11.876;2023-08-07T15:13:01;0.77;;;0.60;;
23588;SDS011;11972;48.078;11.876;2023-08-07T15:17:02;0.88;;;0.50;;
23588;SDS011;11972;48.078;11.876;2023-08-07T15:21:04;1.02;;;0.65;;
23588;SDS011;11972;48.078;11.876;2023-08-07T15:25:04;1.75;;;0.75;;
23588;SDS011;11972;48.078;11.876;2023-08-07T15:29:05;0.70;;;0.50;;
23588;SDS011;11972;48.078;11.876;2023-08-07T15:33:05;0.57;;;0.57;;
23588;SDS011;11972;48.078;11.876;2023-08-07T15:37:06;0.95;;;0.60;;
23588;SDS011;11972;48.078;11.876;2023-08-07T15:41:06;3.60;;;0.70;;
23588;SDS011;11972;48.078;11.876;2023-08-07T15:45:06;0.60;;;0.60;;
23588;SDS011;11972;48.078;11.876;2023-08-07T15:49:07;1.00;;;0.80;;
23588;SDS011;11972;48.078;11.876;2023-08-07T15:53:08;1.73;;;0.70;;
23588;SDS011;11972;48.078;11.876;2023-08-07T15:57:08;2.35;;;0.70;;
23588;SDS011;11972;48.078;11.876;2023-08-07T16:01:09;1.02;;;0.80;;
23588;SDS011;11972;48.078;11.876;2023-08-07T16:05:11;0.68;;;0.63;;
23588;SDS011;11972;48.078;11.876;2023-08-07T16:09:11;1.05;;;0.50;;
23588;SDS011;11972;48.078;11.876;2023-08-07T16:13:11;1.03;;;0.70;;
23588;SDS011;11972;48.078;11.876;2023-08-07T16:17:14;1.25;;;0.52;;
23588;SDS011;11972;48.078;11.876;2023-08-07T16:21:15;1.48;;;0.50;;
23588;SDS011;11972;48.078;11.876;2023-08-07T16:25:15;1.48;;;0.55;;
23588;SDS011;11972;48.078;11.876;2023-08-07T16:29:15;0.73;;;0.50;;
23588;SDS011;11972;48.078;11.876;2023-08-07T16:33:17;1.13;;;0.50;;
23588;SDS011;11972;48.078;11.876;2023-08-07T16:37:17;0.77;;;0.50;;
23588;SDS011;11972;48.078;11.876;2023-08-07T16:41:17;0.50;;;0.50;;
23588;SDS011;11972;48.078;11.876;2023-08-07T16:45:18;1.30;;;0.88;;
23588;SDS011;11972;48.078;11.876;2023-08-07T16:49:19;2.05;;;0.50;;
23588;SDS011;11972;48.078;11.876;2023-08-07T16:53:20;3.43;;;0.63;;
23588;SDS011;11972;48.078;11.876;2023-08-07T16:57:20;1.33;;;0.90;;
23588;SDS011;11972;48.078;11.876;2023-08-07T17:01:22;1.50;;;1.40;;
23588;SDS011;11972;48.078;11.876;2023-08-07T17:05:23;2.45;;;0.85;;
23588;SDS011;11972;48.078;11.876;2023-08-07T17:09:24;0.80;;;0.70;;
23588;SDS011;11972;48.078;11.876;2023-08-07T17:13:25;0.70;;;0.70;;
23588;SDS011;11972;48.078;11.876;2023-08-07T17:17:25;1.00;;;0.82;;
23588;SDS011;11972;48.078;11.876;2023-08-07T17:21:25;0.93;;;0.60;;
23588;SDS011;11972;48.078;11.876;2023-08-07T17:25:26;2.00;;;0.90;;
23588;SDS011;11972;48.078;11.876;2023-08-07T17:29:26;1.10;;;0.70;;
23588;SDS011;11972;48.078;11.876;2023-08-07T17:33:26;1.05;;;0.85;;
23588;SDS011;11972;48.078;11.876;2023-08-07T17:37:28;1.55;;;0.80;;
23588;SDS011;11972;48.078;11.876;2023-08-07T17:41:29;1.07;;;0.90;;
23588;SDS011;11972;48.078;11.876;2023-08-07T17:45:29;1.00;;;0.90;;
23588;SDS011;11972;48.078;11.876;2023-08-07T17:49:29;1.20;;;1.10;;
23588;SDS011;11972;48.078;11.876;2023-08-07T17:53:30;1.58;;;0.70;;
23588;SDS011;11972;48.078;11.876;2023-08-07T17:57:30;0.73;;;0.73;;
23588;SDS011;11972;48.078;11.876;2023-08-07T18:01:31;0.80;;;0.80;;
23588;SDS011;11972;48.078;11.876;2023-08-07T18:05:32;2.53;;;0.93;;
23588;SDS011;11972;48.078;11.876;2023-08-07T18:09:32;2.53;;;0.98;;
23588;SDS011;11972;48.078;11.876;2023-08-07T18:13:33;1.10;;;1.00;;
23588;SDS011;11972;48.078;11.876;2023-08-07T18:17:33;0.90;;;0.80;;
23588;SDS011;11972;48.078;11.876;2023-08-07T18:21:35;0.70;;;0.70;;
23588;SDS011;11972;48.078;11.876;2023-08-07T18:25:35;0.75;;;0.60;;
23588;SDS011;11972;48.078;11.876;2023-08-07T18:29:35;1.85;;;1.02;;
23588;SDS011;11972;48.078;11.876;2023-08-07T18:33:36;2.63;;;0.90;;
23588;SDS011;11972;48.078;11.876;2023-08-07T18:37:37;2.10;;;0.75;;
23588;SDS011;11972;48.078;11.876;2023-08-07T18:41:37;0.80;;;0.80;;
23588;SDS011;11972;48.078;11.876;2023-08-07T18:45:38;0.82;;;0.80;;
23588;SDS011;11972;48.078;11.876;2023-08-07T18:49:38;1.15;;;1.00;;
23588;SDS011;11972;48.078;11.876;2023-08-07T18:53:38;0.70;;;0.60;;
23588;SDS011;11972;48.078;11.876;2023-08-07T18:57:39;0.82;;;0.80;;
23588;SDS011;11972;48.078;11.876;2023-08-07T19:01:40;0.60;;;0.60;;
23588;SDS011;11972;48.078;11.876;2023-08-07T19:05:40;0.97;;;0.57;;
23588;SDS011;11972;48.078;11.876;2023-08-07T19:09:41;0.63;;;0.50;;
23588;SDS011;11972;48.078;11.876;2023-08-07T19:13:41;1.20;;;0.60;;
23588;SDS011;11972;48.078;11.876;2023-08-07T19:17:42;0.60;;;0.43;;
23588;SDS011;11972;48.078;11.876;2023-08-07T19:21:42;1.17;;;0.70;;
23588;SDS011;11972;48.078;11.876;2023-08-07T19:25:42;2.00;;;0.60;;
23588;SDS011;11972;48.078;11.876;2023-08-07T19:29:43;0.30;;;0.30;;
23588;SDS011;11972;48.078;11.876;2023-08-07T19:33:43;1.58;;;0.52;;
23588;SDS011;11972;48.078;11.876;2023-08-07T19:37:44;0.63;;;0.60;;
23588;SDS011;11972;48.078;11.876;2023-08-07T19:41:44;0.60;;;0.50;;
23588;SDS011;11972;48.078;11.876;2023-08-07T19:45:44;0.82;;;0.60;;
23588;SDS011;11972;48.078;11.876;2023-08-07T19:49:45;1.00;;;0.50;;
23588;SDS011;11972;48.078;11.876;2023-08-07T19:53:48;1.90;;;0.80;;
23588;SDS011;11972;48.078;11.876;2023-08-07T19:57:48;0.40;;;0.40;;
23588;SDS011;11972;48.078;11.876;2023-08-07T20:01:49;1.10;;;0.68;;
23588;SDS011;11972;48.078;11.876;2023-08-07T20:05:49;0.82;;;0.50;;
23588;SDS011;11972;48.078;11.876;2023-08-07T20:09:49;0.97;;;0.70;;
23588;SDS011;11972;48.078;11.876;2023-08-07T20:13:50;1.33;;;0.40;;
23588;SDS011;11972;48.078;11.876;2023-08-07T20:17:51;0.93;;;0.50;;
23588;SDS011;11972;48.078;11.876;2023-08-07T20:21:51;0.65;;;0.43;;
23588;SDS011;11972;48.078;11.876;2023-08-07T20:25:51;0.70;;;0.60;;
23588;SDS011;11972;48.078;11.876;2023-08-07T20:29:53;0.85;;;0.35;;
23588;SDS011;11972;48.078;11.876;2023-08-07T20:33:53;0.80;;;0.40;;
23588;SDS011;11972;48.078;11.876;2023-08-07T20:37:58;0.70;;;0.40;;
23588;SDS011;11972;48.078;11.876;2023-08-07T20:41:58;0.55;;;0.50;;
23588;SDS011;11972;48.078;11.876;2023-08-07T20:45:58;0.57;;;0.40;;
23588;SDS011;11972;48.078;11.876;2023-08-07T20:49:59;0.83;;;0.30;;
23588;SDS011;11972;48.078;11.876;2023-08-07T20:54:01;0.60;;;0.47;;
23588;SDS011;11972;48.078;11.876;2023-08-07T20:58:01;0.57;;;0.40;;
23588;SDS011;11972;48.078;11.876;2023-08-07T21:02:02;0.50;;;0.45;;
23588;SDS011;11972;48.078;11.876;2023-08-07T21:06:03;0.40;;;0.40;;
23588;SDS011;11972;48.078;11.876;2023-08-07T21:10:03;0.30;;;0.30;;
23588;SDS011;11972;48.078;11.876;2023-08-07T21:14:04;0.90;;;0.70;;
23588;SDS011;11972;48.078;11.876;2023-08-07T21:18:05;1.92;;;0.40;;
23588;SDS011;11972;48.078;11.876;2023-08-07T21:22:05;0.68;;;0.50;;
23588;SDS011;11972;48.078;11.876;2023-08-07T21:26:05;0.40;;;0.40;;
23588;SDS011;11972;48.078;11.876;2023-08-07T21:30:06;0.45;;;0.30;;
23588;SDS011;11972;48.078;11.876;2023-08-07T21:34:07;0.30;;;0.30;;
23588;SDS011;11972;48.078;11.876;2023-08-07T21:38:09;0.77;;;0.40;;
23588;SDS011;11972;48.078;11.876;2023-08-07T21:42:09;0.43;;;0.40;;
23588;SDS011;11972;48.078;11.876;2023-08-07T21:46:09;0.60;;;0.60;;
23588;SDS011;11972;48.078;11.876;2023-08-07T21:50:11;0.75;;;0.43;;
23588;SDS011;11972;48.078;11.876;2023-08-07T21:54:11;0.50;;;0.40;;
23588;SDS011;11972;48.078;11.876;2023-08-07T21:58:11;0.52;;;0.32;;
23588;SDS011;11972;48.078;11.876;2023-08-07T22:02:12;0.40;;;0.40;;
23588;SDS011;11972;48.078;11.876;2023-08-07T22:06:13;0.40;;;0.40;;
23588;SDS011;11972;48.078;11.876;2023-08-07T22:10:13;0.90;;;0.40;;
23588;SDS011;11972;48.078;11.876;2023-08-07T22:14:15;0.75;;;0.40;;
23588;SDS011;11972;48.078;11.876;2023-08-07T22:18:16;0.82;;;0.40;;
23588;SDS011;11972;48.078;11.876;2023-08-07T22:22:16;0.50;;;0.40;;
23588;SDS011;11972;48.078;11.876;2023-08-07T22:26:16;0.50;;;0.47;;
23588;SDS011;11972;48.078;11.876;2023-08-07T22:30:17;1.02;;;0.30;;
23588;SDS011;11972;48.078;11.876;2023-08-07T22:34:20;1.45;;;0.30;;
23588;SDS011;11972;48.078;11.876;2023-08-07T22:38:20;0.40;;;0.40;;
23588;SDS011;11972;48.078;11.876;2023-08-07T22:42:20;0.45;;;0.45;;
23588;SDS011;11972;48.078;11.876;2023-08-07T22:46:21;2.05;;;0.52;;
23588;SDS011;11972;48.078;11.876;2023-08-07T22:50:21;1.13;;;0.50;;
23588;SDS011;11972;48.078;11.876;2023-08-07T22:54:22;0.40;;;0.40;;
23588;SDS011;11972;48.078;11.876;2023-08-07T22:58:22;0.60;;;0.40;;
23588;SDS011;11972;48.078;11.876;2023-08-07T23:02:23;1.40;;;0.50;;
23588;SDS011;11972;48.078;11.876;2023-08-07T23:06:23;0.47;;;0.47;;
23588;SDS011;11972;48.078;11.876;2023-08-07T23:10:23;1.00;;;0.43;;
23588;SDS011;11972;48.078;11.876;2023-08-07T23:14:24;0.50;;;0.40;;
23588;SDS011;11972;48.078;11.876;2023-08-07T23:18:24;0.50;;;0.43;;
23588;SDS011;11972;48.078;11.876;2023-08-07T23:22:25;1.45;;;0.68;;
23588;SDS011;11972;48.078;11.876;2023-08-07T23:26:25;1.10;;;0.40;;
23588;SDS011;11972;48.078;11.876;2023-08-07T23:30:28;1.40;;;0.40;;
23588;SDS011;11972;48.078;11.876;2023-08-07T23:34:28;1.00;;;0.40;;
23588;SDS011;11972;48.078;11.876;2023-08-07T23:38:28;2.67;;;0.37;;
23588;SDS011;11972;48.078;11.876;2023-08-07T23:42:29;0.50;;;0.30;;
23588;SDS011;11972;48.078;11.876;2023-08-07T23:46:29;1.30;;;0.40;;
23588;SDS011;11972;48.078;11.876;2023-08-07T23:50:30;0.43;;;0.30;;
23588;SDS011;11972;48.078;11.876;2023-08-07T23:54:30;2.03;;;0.50;;
23588;SDS011;11972;48.078;11.876;2023-08-07T23:58:31;1.17;;;0.30;;
